sensor_id;sensor_type;location;lat;lon;timestamp;P1;durP1;ratioP1;P2;durP2;ratioP2
54919;SDS011;63804;53.120;8.764;2023-11-21T00:00:46;20.38;;;7.57;;
54919;SDS011;63804;53.120;8.764;2023-11-21T00:03:14;19.73;;;7.13;;
54919;SDS011;63804;53.120;8.764;2023-11-21T00:05:43;20.00;;;7.72;;
54919;SDS011;63804;53.120;8.764;2023-11-21T00:08:10;22.75;;;7.13;;
54919;SDS011;63804;53.120;8.764;2023-11-21T00:10:39;22.75;;;8.02;;
54919;SDS011;63804;53.120;8.764;2023-11-21T00:13:07;21.10;;;8.18;;
54919;SDS011;63804;53.120;8.764;2023-11-21T00:15:35;17.90;;;8.00;;
54919;SDS011;63804;53.120;8.764;2023-11-21T00:18:02;21.95;;;9.48;;
54919;SDS011;63804;53.120;8.764;2023-11-21T00:20:30;23.27;;;10.32;;
54919;SDS011;63804;53.120;8.764;2023-11-21T00:22:58;25.80;;;11.73;;
54919;SDS011;63804;53.120;8.764;2023-11-21T00:25:27;24.67;;;11.57;;
54919;SDS011;63804;53.120;8.764;2023-11-21T00:27:54;22.15;;;12.45;;
54919;SDS011;63804;53.120;8.764;2023-11-21T00:30:22;23.80;;;12.25;;
54919;SDS011;63804;53.120;8.764;2023-11-21T00:32:50;21.25;;;10.50;;
54919;SDS011;63804;53.120;8.764;2023-11-21T00:35:18;24.45;;;10.93;;
54919;SDS011;63804;53.120;8.764;2023-11-21T00:37:45;21.05;;;10.07;;
54919;SDS011;63804;53.120;8.764;2023-11-21T00:40:13;21.13;;;10.02;;
54919;SDS011;63804;53.120;8.764;2023-11-21T00:42:43;22.05;;;9.50;;
54919;SDS011;63804;53.120;8.764;2023-11-21T00:45:11;23.77;;;9.30;;
54919;SDS011;63804;53.120;8.764;2023-11-21T00:47:39;17.88;;;8.13;;
54919;SDS011;63804;53.120;8.764;2023-11-21T00:50:07;19.42;;;8.48;;
54919;SDS011;63804;53.120;8.764;2023-11-21T00:52:35;21.00;;;9.32;;
54919;SDS011;63804;53.120;8.764;2023-11-21T00:55:04;19.55;;;8.45;;
54919;SDS011;63804;53.120;8.764;2023-11-21T00:57:35;17.80;;;8.77;;
54919;SDS011;63804;53.120;8.764;2023-11-21T01:00:03;20.70;;;8.38;;
54919;SDS011;63804;53.120;8.764;2023-11-21T01:02:44;19.02;;;8.85;;
54919;SDS011;63804;53.120;8.764;2023-11-21T01:05:12;18.60;;;8.93;;
54919;SDS011;63804;53.120;8.764;2023-11-21T01:07:40;18.85;;;9.07;;
54919;SDS011;63804;53.120;8.764;2023-11-21T01:10:08;16.45;;;8.40;;
54919;SDS011;63804;53.120;8.764;2023-11-21T01:12:37;18.90;;;9.40;;
54919;SDS011;63804;53.120;8.764;2023-11-21T01:15:06;19.85;;;9.65;;
54919;SDS011;63804;53.120;8.764;2023-11-21T01:17:35;16.75;;;8.50;;
54919;SDS011;63804;53.120;8.764;2023-11-21T01:20:04;17.15;;;8.80;;
54919;SDS011;63804;53.120;8.764;2023-11-21T01:22:39;19.50;;;8.25;;
54919;SDS011;63804;53.120;8.764;2023-11-21T01:25:07;17.10;;;8.15;;
54919;SDS011;63804;53.120;8.764;2023-11-21T01:27:35;18.80;;;8.55;;
54919;SDS011;63804;53.120;8.764;2023-11-21T01:30:04;15.50;;;8.30;;
54919;SDS011;63804;53.120;8.764;2023-11-21T01:32:34;19.40;;;9.30;;
54919;SDS011;63804;53.120;8.764;2023-11-21T01:35:03;17.88;;;8.35;;
54919;SDS011;63804;53.120;8.764;2023-11-21T01:37:33;17.63;;;8.23;;
54919;SDS011;63804;53.120;8.764;2023-11-21T01:40:00;14.02;;;8.13;;
54919;SDS011;63804;53.120;8.764;2023-11-21T01:42:29;18.00;;;8.43;;
54919;SDS011;63804;53.120;8.764;2023-11-21T01:44:57;14.25;;;7.72;;
54919;SDS011;63804;53.120;8.764;2023-11-21T01:47:25;17.27;;;8.23;;
54919;SDS011;63804;53.120;8.764;2023-11-21T01:49:53;14.98;;;8.27;;
54919;SDS011;63804;53.120;8.764;2023-11-21T01:52:21;17.85;;;8.15;;
54919;SDS011;63804;53.120;8.764;2023-11-21T01:54:49;18.38;;;7.68;;
54919;SDS011;63804;53.120;8.764;2023-11-21T01:57:16;17.80;;;9.00;;
54919;SDS011;63804;53.120;8.764;2023-11-21T01:59:46;16.52;;;7.60;;
54919;SDS011;63804;53.120;8.764;2023-11-21T02:02:16;15.02;;;7.80;;
54919;SDS011;63804;53.120;8.764;2023-11-21T02:04:44;13.02;;;7.10;;
54919;SDS011;63804;53.120;8.764;2023-11-21T02:07:11;14.30;;;8.35;;
54919;SDS011;63804;53.120;8.764;2023-11-21T02:09:39;14.63;;;7.55;;
54919;SDS011;63804;53.120;8.764;2023-11-21T02:12:09;14.30;;;7.65;;
54919;SDS011;63804;53.120;8.764;2023-11-21T02:14:37;12.98;;;7.60;;
54919;SDS011;63804;53.120;8.764;2023-11-21T02:17:05;12.82;;;7.40;;
54919;SDS011;63804;53.120;8.764;2023-11-21T02:19:33;13.07;;;6.90;;
54919;SDS011;63804;53.120;8.764;2023-11-21T02:22:01;12.73;;;7.20;;
54919;SDS011;63804;53.120;8.764;2023-11-21T02:24:30;13.35;;;7.45;;
54919;SDS011;63804;53.120;8.764;2023-11-21T02:26:59;14.57;;;7.88;;
54919;SDS011;63804;53.120;8.764;2023-11-21T02:29:28;12.18;;;7.63;;
54919;SDS011;63804;53.120;8.764;2023-11-21T02:31:56;11.93;;;6.75;;
54919;SDS011;63804;53.120;8.764;2023-11-21T02:34:24;12.25;;;7.55;;
54919;SDS011;63804;53.120;8.764;2023-11-21T02:36:54;13.88;;;7.95;;
54919;SDS011;63804;53.120;8.764;2023-11-21T02:39:22;12.40;;;8.10;;
54919;SDS011;63804;53.120;8.764;2023-11-21T02:41:51;12.90;;;7.93;;
54919;SDS011;63804;53.120;8.764;2023-11-21T02:44:19;14.80;;;9.30;;
54919;SDS011;63804;53.120;8.764;2023-11-21T02:46:47;14.82;;;9.50;;
54919;SDS011;63804;53.120;8.764;2023-11-21T02:49:15;17.67;;;10.32;;
54919;SDS011;63804;53.120;8.764;2023-11-21T02:51:42;16.45;;;10.52;;
54919;SDS011;63804;53.120;8.764;2023-11-21T02:54:11;16.73;;;10.68;;
54919;SDS011;63804;53.120;8.764;2023-11-21T02:56:38;17.30;;;11.13;;
54919;SDS011;63804;53.120;8.764;2023-11-21T02:59:07;18.35;;;11.23;;
54919;SDS011;63804;53.120;8.764;2023-11-21T03:01:35;18.05;;;11.85;;
54919;SDS011;63804;53.120;8.764;2023-11-21T03:04:02;20.58;;;12.43;;
54919;SDS011;63804;53.120;8.764;2023-11-21T03:06:30;19.27;;;11.77;;
54919;SDS011;63804;53.120;8.764;2023-11-21T03:08:58;20.45;;;12.27;;
54919;SDS011;63804;53.120;8.764;2023-11-21T03:11:27;19.35;;;12.13;;
54919;SDS011;63804;53.120;8.764;2023-11-21T03:13:55;19.13;;;12.45;;
54919;SDS011;63804;53.120;8.764;2023-11-21T03:16:23;20.70;;;13.35;;
54919;SDS011;63804;53.120;8.764;2023-11-21T03:18:51;19.40;;;12.52;;
54919;SDS011;63804;53.120;8.764;2023-11-21T03:21:20;22.33;;;13.45;;
54919;SDS011;63804;53.120;8.764;2023-11-21T03:23:47;23.90;;;14.68;;
54919;SDS011;63804;53.120;8.764;2023-11-21T03:26:15;24.17;;;14.52;;
54919;SDS011;63804;53.120;8.764;2023-11-21T03:28:43;24.88;;;15.05;;
54919;SDS011;63804;53.120;8.764;2023-11-21T03:31:11;23.95;;;15.07;;
54919;SDS011;63804;53.120;8.764;2023-11-21T03:33:39;29.85;;;15.85;;
54919;SDS011;63804;53.120;8.764;2023-11-21T03:36:07;25.58;;;16.05;;
54919;SDS011;63804;53.120;8.764;2023-11-21T03:38:35;29.48;;;17.80;;
54919;SDS011;63804;53.120;8.764;2023-11-21T03:41:04;26.95;;;16.75;;
54919;SDS011;63804;53.120;8.764;2023-11-21T03:43:32;27.95;;;17.70;;
54919;SDS011;63804;53.120;8.764;2023-11-21T03:46:00;27.92;;;17.45;;
54919;SDS011;63804;53.120;8.764;2023-11-21T03:48:28;26.85;;;16.63;;
54919;SDS011;63804;53.120;8.764;2023-11-21T03:50:56;27.95;;;17.05;;
54919;SDS011;63804;53.120;8.764;2023-11-21T03:53:24;26.23;;;16.27;;
54919;SDS011;63804;53.120;8.764;2023-11-21T03:55:52;26.38;;;16.98;;
54919;SDS011;63804;53.120;8.764;2023-11-21T03:58:20;24.20;;;16.50;;
54919;SDS011;63804;53.120;8.764;2023-11-21T04:00:47;25.27;;;17.00;;
54919;SDS011;63804;53.120;8.764;2023-11-21T04:03:18;24.42;;;16.27;;
54919;SDS011;63804;53.120;8.764;2023-11-21T04:05:47;24.50;;;16.05;;
54919;SDS011;63804;53.120;8.764;2023-11-21T04:08:14;24.30;;;17.05;;
54919;SDS011;63804;53.120;8.764;2023-11-21T04:10:42;26.70;;;17.15;;
54919;SDS011;63804;53.120;8.764;2023-11-21T04:13:10;25.52;;;17.10;;
54919;SDS011;63804;53.120;8.764;2023-11-21T04:15:38;28.17;;;17.63;;
54919;SDS011;63804;53.120;8.764;2023-11-21T04:18:05;26.23;;;17.35;;
54919;SDS011;63804;53.120;8.764;2023-11-21T04:20:33;26.95;;;17.80;;
54919;SDS011;63804;53.120;8.764;2023-11-21T04:23:01;25.23;;;18.35;;
54919;SDS011;63804;53.120;8.764;2023-11-21T04:25:29;22.20;;;16.60;;
54919;SDS011;63804;53.120;8.764;2023-11-21T04:27:56;20.35;;;15.05;;
54919;SDS011;63804;53.120;8.764;2023-11-21T04:30:24;20.88;;;15.85;;
54919;SDS011;63804;53.120;8.764;2023-11-21T04:32:52;20.92;;;15.00;;
54919;SDS011;63804;53.120;8.764;2023-11-21T04:35:19;20.40;;;14.93;;
54919;SDS011;63804;53.120;8.764;2023-11-21T04:37:47;20.40;;;15.35;;
54919;SDS011;63804;53.120;8.764;2023-11-21T04:40:15;19.38;;;14.43;;
54919;SDS011;63804;53.120;8.764;2023-11-21T04:42:43;19.42;;;14.05;;
54919;SDS011;63804;53.120;8.764;2023-11-21T04:45:11;17.33;;;13.43;;
54919;SDS011;63804;53.120;8.764;2023-11-21T04:47:40;18.70;;;13.77;;
54919;SDS011;63804;53.120;8.764;2023-11-21T04:50:08;18.60;;;14.35;;
54919;SDS011;63804;53.120;8.764;2023-11-21T04:52:36;18.73;;;14.30;;
54919;SDS011;63804;53.120;8.764;2023-11-21T04:55:04;19.33;;;14.43;;
54919;SDS011;63804;53.120;8.764;2023-11-21T04:57:34;18.48;;;13.85;;
54919;SDS011;63804;53.120;8.764;2023-11-21T05:00:02;18.70;;;14.32;;
54919;SDS011;63804;53.120;8.764;2023-11-21T05:02:33;21.05;;;15.75;;
54919;SDS011;63804;53.120;8.764;2023-11-21T05:05:06;23.40;;;16.55;;
54919;SDS011;63804;53.120;8.764;2023-11-21T05:07:35;19.98;;;14.43;;
54919;SDS011;63804;53.120;8.764;2023-11-21T05:10:04;20.65;;;14.80;;
54919;SDS011;63804;53.120;8.764;2023-11-21T05:12:36;18.53;;;15.13;;
54919;SDS011;63804;53.120;8.764;2023-11-21T05:15:07;19.10;;;13.43;;
54919;SDS011;63804;53.120;8.764;2023-11-21T05:17:39;19.02;;;13.13;;
54919;SDS011;63804;53.120;8.764;2023-11-21T05:20:13;13.63;;;10.23;;
54919;SDS011;63804;53.120;8.764;2023-11-21T05:22:45;13.88;;;9.60;;
54919;SDS011;63804;53.120;8.764;2023-11-21T05:25:13;14.32;;;9.05;;
54919;SDS011;63804;53.120;8.764;2023-11-21T05:27:41;14.98;;;10.00;;
54919;SDS011;63804;53.120;8.764;2023-11-21T05:30:09;15.00;;;10.48;;
54919;SDS011;63804;53.120;8.764;2023-11-21T05:32:40;15.90;;;10.98;;
54919;SDS011;63804;53.120;8.764;2023-11-21T05:35:11;15.32;;;10.32;;
54919;SDS011;63804;53.120;8.764;2023-11-21T05:37:47;15.00;;;9.80;;
54919;SDS011;63804;53.120;8.764;2023-11-21T05:40:15;11.20;;;7.55;;
54919;SDS011;63804;53.120;8.764;2023-11-21T05:42:43;10.43;;;7.50;;
54919;SDS011;63804;53.120;8.764;2023-11-21T05:45:11;10.18;;;6.18;;
54919;SDS011;63804;53.120;8.764;2023-11-21T05:47:41;9.77;;;5.88;;
54919;SDS011;63804;53.120;8.764;2023-11-21T05:50:11;9.23;;;5.35;;
54919;SDS011;63804;53.120;8.764;2023-11-21T05:52:44;9.77;;;5.63;;
54919;SDS011;63804;53.120;8.764;2023-11-21T05:55:13;8.35;;;4.85;;
54919;SDS011;63804;53.120;8.764;2023-11-21T05:57:42;8.80;;;5.43;;
54919;SDS011;63804;53.120;8.764;2023-11-21T06:00:11;9.38;;;5.40;;
54919;SDS011;63804;53.120;8.764;2023-11-21T06:02:50;9.63;;;5.75;;
54919;SDS011;63804;53.120;8.764;2023-11-21T06:05:24;8.18;;;5.22;;
54919;SDS011;63804;53.120;8.764;2023-11-21T06:07:54;7.97;;;4.93;;
54919;SDS011;63804;53.120;8.764;2023-11-21T06:10:27;8.45;;;5.63;;
54919;SDS011;63804;53.120;8.764;2023-11-21T06:12:56;9.15;;;5.72;;
54919;SDS011;63804;53.120;8.764;2023-11-21T06:15:29;9.55;;;5.53;;
54919;SDS011;63804;53.120;8.764;2023-11-21T06:17:57;8.68;;;5.32;;
54919;SDS011;63804;53.120;8.764;2023-11-21T06:20:26;9.75;;;5.55;;
54919;SDS011;63804;53.120;8.764;2023-11-21T06:22:54;8.13;;;5.20;;
54919;SDS011;63804;53.120;8.764;2023-11-21T06:25:22;9.77;;;5.57;;
54919;SDS011;63804;53.120;8.764;2023-11-21T06:27:50;10.13;;;6.20;;
54919;SDS011;63804;53.120;8.764;2023-11-21T06:30:20;9.10;;;5.75;;
54919;SDS011;63804;53.120;8.764;2023-11-21T06:32:48;9.15;;;5.60;;
54919;SDS011;63804;53.120;8.764;2023-11-21T06:35:16;8.57;;;5.65;;
54919;SDS011;63804;53.120;8.764;2023-11-21T06:37:44;10.90;;;6.65;;
54919;SDS011;63804;53.120;8.764;2023-11-21T06:40:17;10.00;;;6.45;;
54919;SDS011;63804;53.120;8.764;2023-11-21T06:42:47;13.40;;;6.07;;
54919;SDS011;63804;53.120;8.764;2023-11-21T06:45:15;8.65;;;5.38;;
54919;SDS011;63804;53.120;8.764;2023-11-21T06:47:44;10.40;;;6.40;;
54919;SDS011;63804;53.120;8.764;2023-11-21T06:50:12;9.40;;;5.97;;
54919;SDS011;63804;53.120;8.764;2023-11-21T06:52:40;11.52;;;6.63;;
54919;SDS011;63804;53.120;8.764;2023-11-21T06:55:08;10.00;;;6.47;;
54919;SDS011;63804;53.120;8.764;2023-11-21T06:57:37;11.07;;;5.80;;
54919;SDS011;63804;53.120;8.764;2023-11-21T07:00:06;10.00;;;6.38;;
54919;SDS011;63804;53.120;8.764;2023-11-21T07:02:37;10.90;;;6.50;;
54919;SDS011;63804;53.120;8.764;2023-11-21T07:05:06;10.13;;;6.53;;
54919;SDS011;63804;53.120;8.764;2023-11-21T07:07:34;10.30;;;6.40;;
54919;SDS011;63804;53.120;8.764;2023-11-21T07:10:03;11.30;;;7.35;;
54919;SDS011;63804;53.120;8.764;2023-11-21T07:12:33;10.95;;;7.20;;
54919;SDS011;63804;53.120;8.764;2023-11-21T07:15:02;10.55;;;6.50;;
54919;SDS011;63804;53.120;8.764;2023-11-21T07:17:30;11.55;;;6.60;;
54919;SDS011;63804;53.120;8.764;2023-11-21T07:19:59;11.10;;;6.55;;
54919;SDS011;63804;53.120;8.764;2023-11-21T07:22:27;9.70;;;6.50;;
54919;SDS011;63804;53.120;8.764;2023-11-21T07:24:55;10.32;;;6.63;;
54919;SDS011;63804;53.120;8.764;2023-11-21T07:27:26;10.00;;;6.22;;
54919;SDS011;63804;53.120;8.764;2023-11-21T07:29:54;11.82;;;6.90;;
54919;SDS011;63804;53.120;8.764;2023-11-21T07:32:21;10.88;;;7.40;;
54919;SDS011;63804;53.120;8.764;2023-11-21T07:34:49;11.00;;;6.85;;
54919;SDS011;63804;53.120;8.764;2023-11-21T07:37:17;12.43;;;7.50;;
54919;SDS011;63804;53.120;8.764;2023-11-21T07:39:45;14.13;;;7.38;;
54919;SDS011;63804;53.120;8.764;2023-11-21T07:42:14;12.25;;;7.55;;
54919;SDS011;63804;53.120;8.764;2023-11-21T07:44:41;12.25;;;7.60;;
54919;SDS011;63804;53.120;8.764;2023-11-21T07:47:09;10.38;;;7.00;;
54919;SDS011;63804;53.120;8.764;2023-11-21T07:49:37;10.60;;;6.88;;
54919;SDS011;63804;53.120;8.764;2023-11-21T07:52:05;12.00;;;7.40;;
54919;SDS011;63804;53.120;8.764;2023-11-21T07:54:33;11.40;;;7.10;;
54919;SDS011;63804;53.120;8.764;2023-11-21T07:57:03;12.05;;;7.28;;
54919;SDS011;63804;53.120;8.764;2023-11-21T07:59:31;12.07;;;6.90;;
54919;SDS011;63804;53.120;8.764;2023-11-21T08:01:59;10.90;;;7.28;;
54919;SDS011;63804;53.120;8.764;2023-11-21T08:04:28;11.30;;;7.10;;
54919;SDS011;63804;53.120;8.764;2023-11-21T08:06:59;12.00;;;7.30;;
54919;SDS011;63804;53.120;8.764;2023-11-21T08:09:27;14.80;;;7.60;;
54919;SDS011;63804;53.120;8.764;2023-11-21T08:11:55;11.45;;;7.63;;
54919;SDS011;63804;53.120;8.764;2023-11-21T08:14:24;10.13;;;6.95;;
54919;SDS011;63804;53.120;8.764;2023-11-21T08:16:54;10.63;;;7.50;;
54919;SDS011;63804;53.120;8.764;2023-11-21T08:19:25;11.82;;;7.97;;
54919;SDS011;63804;53.120;8.764;2023-11-21T08:21:53;11.48;;;7.25;;
54919;SDS011;63804;53.120;8.764;2023-11-21T08:24:22;11.73;;;7.68;;
54919;SDS011;63804;53.120;8.764;2023-11-21T08:26:50;11.10;;;7.05;;
54919;SDS011;63804;53.120;8.764;2023-11-21T08:29:19;12.10;;;7.50;;
54919;SDS011;63804;53.120;8.764;2023-11-21T08:31:47;11.35;;;7.75;;
54919;SDS011;63804;53.120;8.764;2023-11-21T08:34:15;12.98;;;7.75;;
54919;SDS011;63804;53.120;8.764;2023-11-21T08:36:43;10.52;;;7.32;;
54919;SDS011;63804;53.120;8.764;2023-11-21T08:39:11;11.68;;;7.85;;
54919;SDS011;63804;53.120;8.764;2023-11-21T08:41:40;11.23;;;7.97;;
54919;SDS011;63804;53.120;8.764;2023-11-21T08:44:08;12.10;;;8.23;;
54919;SDS011;63804;53.120;8.764;2023-11-21T08:46:36;11.00;;;8.02;;
54919;SDS011;63804;53.120;8.764;2023-11-21T08:49:05;11.88;;;7.80;;
54919;SDS011;63804;53.120;8.764;2023-11-21T08:51:33;11.00;;;7.47;;
54919;SDS011;63804;53.120;8.764;2023-11-21T08:54:01;14.30;;;7.70;;
54919;SDS011;63804;53.120;8.764;2023-11-21T08:56:32;11.65;;;7.97;;
54919;SDS011;63804;53.120;8.764;2023-11-21T08:58:59;13.07;;;8.07;;
54919;SDS011;63804;53.120;8.764;2023-11-21T09:01:30;12.43;;;7.85;;
54919;SDS011;63804;53.120;8.764;2023-11-21T09:03:59;12.02;;;7.80;;
54919;SDS011;63804;53.120;8.764;2023-11-21T09:06:27;12.48;;;8.15;;
54919;SDS011;63804;53.120;8.764;2023-11-21T09:08:54;11.55;;;7.70;;
54919;SDS011;63804;53.120;8.764;2023-11-21T09:11:22;12.60;;;7.45;;
54919;SDS011;63804;53.120;8.764;2023-11-21T09:13:51;11.55;;;8.02;;
54919;SDS011;63804;53.120;8.764;2023-11-21T09:16:18;12.57;;;7.18;;
54919;SDS011;63804;53.120;8.764;2023-11-21T09:18:46;13.10;;;8.05;;
54919;SDS011;63804;53.120;8.764;2023-11-21T09:21:14;10.75;;;6.80;;
54919;SDS011;63804;53.120;8.764;2023-11-21T09:23:43;10.80;;;7.35;;
54919;SDS011;63804;53.120;8.764;2023-11-21T09:26:12;12.52;;;7.47;;
54919;SDS011;63804;53.120;8.764;2023-11-21T09:28:39;10.43;;;7.03;;
54919;SDS011;63804;53.120;8.764;2023-11-21T09:31:10;11.43;;;6.95;;
54919;SDS011;63804;53.120;8.764;2023-11-21T09:33:37;10.68;;;7.13;;
54919;SDS011;63804;53.120;8.764;2023-11-21T09:36:05;14.05;;;7.68;;
54919;SDS011;63804;53.120;8.764;2023-11-21T09:38:38;12.80;;;7.80;;
54919;SDS011;63804;53.120;8.764;2023-11-21T09:41:06;10.52;;;6.65;;
54919;SDS011;63804;53.120;8.764;2023-11-21T09:43:45;11.00;;;7.57;;
54919;SDS011;63804;53.120;8.764;2023-11-21T09:46:14;10.88;;;6.72;;
54919;SDS011;63804;53.120;8.764;2023-11-21T09:48:50;10.63;;;6.53;;
54919;SDS011;63804;53.120;8.764;2023-11-21T09:51:20;10.75;;;7.25;;
54919;SDS011;63804;53.120;8.764;2023-11-21T09:53:51;12.02;;;7.40;;
54919;SDS011;63804;53.120;8.764;2023-11-21T09:56:21;12.40;;;7.45;;
54919;SDS011;63804;53.120;8.764;2023-11-21T09:58:52;11.05;;;6.70;;
54919;SDS011;63804;53.120;8.764;2023-11-21T10:01:20;11.80;;;7.30;;
54919;SDS011;63804;53.120;8.764;2023-11-21T10:03:50;12.13;;;7.20;;
54919;SDS011;63804;53.120;8.764;2023-11-21T10:06:18;11.18;;;6.88;;
54919;SDS011;63804;53.120;8.764;2023-11-21T10:08:46;11.02;;;7.18;;
54919;SDS011;63804;53.120;8.764;2023-11-21T10:11:24;12.45;;;7.30;;
54919;SDS011;63804;53.120;8.764;2023-11-21T10:13:54;12.10;;;7.15;;
54919;SDS011;63804;53.120;8.764;2023-11-21T10:16:25;10.05;;;6.47;;
54919;SDS011;63804;53.120;8.764;2023-11-21T10:18:54;9.60;;;6.38;;
54919;SDS011;63804;53.120;8.764;2023-11-21T10:21:37;10.57;;;6.53;;
54919;SDS011;63804;53.120;8.764;2023-11-21T10:24:06;13.18;;;6.95;;
54919;SDS011;63804;53.120;8.764;2023-11-21T10:26:34;10.77;;;6.35;;
54919;SDS011;63804;53.120;8.764;2023-11-21T10:29:17;11.73;;;6.78;;
54919;SDS011;63804;53.120;8.764;2023-11-21T10:31:46;11.77;;;7.10;;
54919;SDS011;63804;53.120;8.764;2023-11-21T10:34:20;10.93;;;6.22;;
54919;SDS011;63804;53.120;8.764;2023-11-21T10:36:48;12.07;;;7.03;;
54919;SDS011;63804;53.120;8.764;2023-11-21T10:39:17;10.57;;;6.75;;
54919;SDS011;63804;53.120;8.764;2023-11-21T10:41:46;11.23;;;6.70;;
54919;SDS011;63804;53.120;8.764;2023-11-21T10:44:15;11.32;;;7.47;;
54919;SDS011;63804;53.120;8.764;2023-11-21T10:46:52;10.07;;;6.40;;
54919;SDS011;63804;53.120;8.764;2023-11-21T10:49:25;11.18;;;6.43;;
54919;SDS011;63804;53.120;8.764;2023-11-21T10:51:54;10.18;;;6.55;;
54919;SDS011;63804;53.120;8.764;2023-11-21T10:54:24;9.70;;;6.00;;
54919;SDS011;63804;53.120;8.764;2023-11-21T10:56:59;11.15;;;6.43;;
54919;SDS011;63804;53.120;8.764;2023-11-21T10:59:29;10.40;;;6.40;;
54919;SDS011;63804;53.120;8.764;2023-11-21T11:02:00;8.70;;;5.43;;
54919;SDS011;63804;53.120;8.764;2023-11-21T11:04:31;10.27;;;6.35;;
54919;SDS011;63804;53.120;8.764;2023-11-21T11:07:01;10.73;;;6.30;;
54919;SDS011;63804;53.120;8.764;2023-11-21T11:09:32;10.20;;;5.95;;
54919;SDS011;63804;53.120;8.764;2023-11-21T11:12:03;9.98;;;6.32;;
54919;SDS011;63804;53.120;8.764;2023-11-21T11:14:32;13.27;;;6.38;;
54919;SDS011;63804;53.120;8.764;2023-11-21T11:17:00;10.27;;;6.40;;
54919;SDS011;63804;53.120;8.764;2023-11-21T11:19:29;9.45;;;5.95;;
54919;SDS011;63804;53.120;8.764;2023-11-21T11:27:50;11.88;;;6.20;;
54919;SDS011;63804;53.120;8.764;2023-11-21T11:38:32;8.55;;;5.47;;
54919;SDS011;63804;53.120;8.764;2023-11-21T11:41:02;12.73;;;5.80;;
54919;SDS011;63804;53.120;8.764;2023-11-21T11:43:32;8.18;;;4.90;;
54919;SDS011;63804;53.120;8.764;2023-11-21T11:46:02;9.30;;;5.78;;
54919;SDS011;63804;53.120;8.764;2023-11-21T11:48:34;10.07;;;5.50;;
54919;SDS011;63804;53.120;8.764;2023-11-21T11:53:45;8.43;;;5.20;;
54919;SDS011;63804;53.120;8.764;2023-11-21T11:56:30;9.85;;;5.18;;
54919;SDS011;63804;53.120;8.764;2023-11-21T11:59:02;10.23;;;5.25;;
54919;SDS011;63804;53.120;8.764;2023-11-21T12:01:32;9.40;;;5.18;;
54919;SDS011;63804;53.120;8.764;2023-11-21T12:06:42;12.75;;;4.90;;
54919;SDS011;63804;53.120;8.764;2023-11-21T12:09:12;8.65;;;4.25;;
54919;SDS011;63804;53.120;8.764;2023-11-21T12:11:46;10.20;;;4.32;;
54919;SDS011;63804;53.120;8.764;2023-11-21T12:14:14;9.00;;;4.15;;
54919;SDS011;63804;53.120;8.764;2023-11-21T12:16:42;6.00;;;3.58;;
54919;SDS011;63804;53.120;8.764;2023-11-21T12:19:13;7.10;;;3.67;;
54919;SDS011;63804;53.120;8.764;2023-11-21T12:21:43;6.38;;;3.42;;
54919;SDS011;63804;53.120;8.764;2023-11-21T12:24:11;7.03;;;3.10;;
54919;SDS011;63804;53.120;8.764;2023-11-21T12:26:41;6.63;;;3.60;;
54919;SDS011;63804;53.120;8.764;2023-11-21T12:29:11;8.77;;;4.03;;
54919;SDS011;63804;53.120;8.764;2023-11-21T12:31:39;6.78;;;3.53;;
54919;SDS011;63804;53.120;8.764;2023-11-21T12:34:08;6.15;;;3.47;;
54919;SDS011;63804;53.120;8.764;2023-11-21T12:36:38;8.07;;;3.33;;
54919;SDS011;63804;53.120;8.764;2023-11-21T12:39:07;5.57;;;3.20;;
54919;SDS011;63804;53.120;8.764;2023-11-21T12:41:37;8.02;;;3.28;;
54919;SDS011;63804;53.120;8.764;2023-11-21T12:44:09;5.82;;;3.30;;
54919;SDS011;63804;53.120;8.764;2023-11-21T12:46:40;7.93;;;3.17;;
54919;SDS011;63804;53.120;8.764;2023-11-21T12:49:10;5.75;;;2.95;;
54919;SDS011;63804;53.120;8.764;2023-11-21T12:51:45;7.07;;;3.10;;
54919;SDS011;63804;53.120;8.764;2023-11-21T12:54:14;6.30;;;2.63;;
54919;SDS011;63804;53.120;8.764;2023-11-21T12:56:44;5.88;;;2.85;;
54919;SDS011;63804;53.120;8.764;2023-11-21T12:59:15;4.95;;;3.00;;
54919;SDS011;63804;53.120;8.764;2023-11-21T13:01:44;5.80;;;2.97;;
54919;SDS011;63804;53.120;8.764;2023-11-21T13:04:13;5.35;;;3.08;;
54919;SDS011;63804;53.120;8.764;2023-11-21T13:06:41;6.25;;;3.35;;
54919;SDS011;63804;53.120;8.764;2023-11-21T13:09:09;6.43;;;3.40;;
54919;SDS011;63804;53.120;8.764;2023-11-21T13:11:38;7.13;;;3.80;;
54919;SDS011;63804;53.120;8.764;2023-11-21T13:14:08;6.00;;;3.10;;
54919;SDS011;63804;53.120;8.764;2023-11-21T13:16:38;6.40;;;2.42;;
54919;SDS011;63804;53.120;8.764;2023-11-21T13:19:09;5.32;;;2.22;;
54919;SDS011;63804;53.120;8.764;2023-11-21T13:21:37;3.88;;;1.70;;
54919;SDS011;63804;53.120;8.764;2023-11-21T13:24:07;2.70;;;1.50;;
54919;SDS011;63804;53.120;8.764;2023-11-21T13:26:34;4.38;;;1.90;;
54919;SDS011;63804;53.120;8.764;2023-11-21T13:29:03;4.53;;;1.60;;
54919;SDS011;63804;53.120;8.764;2023-11-21T13:31:32;3.60;;;1.75;;
54919;SDS011;63804;53.120;8.764;2023-11-21T13:34:04;3.97;;;1.73;;
54919;SDS011;63804;53.120;8.764;2023-11-21T13:36:36;5.55;;;1.70;;
54919;SDS011;63804;53.120;8.764;2023-11-21T13:39:03;4.85;;;1.80;;
54919;SDS011;63804;53.120;8.764;2023-11-21T13:41:43;2.92;;;1.63;;
54919;SDS011;63804;53.120;8.764;2023-11-21T13:44:15;3.30;;;1.70;;
54919;SDS011;63804;53.120;8.764;2023-11-21T13:46:54;3.65;;;1.90;;
54919;SDS011;63804;53.120;8.764;2023-11-21T13:49:25;4.45;;;2.13;;
54919;SDS011;63804;53.120;8.764;2023-11-21T13:51:54;3.80;;;1.88;;
54919;SDS011;63804;53.120;8.764;2023-11-21T13:54:23;3.55;;;1.92;;
54919;SDS011;63804;53.120;8.764;2023-11-21T13:56:52;4.22;;;2.35;;
54919;SDS011;63804;53.120;8.764;2023-11-21T13:59:22;3.83;;;2.15;;
54919;SDS011;63804;53.120;8.764;2023-11-21T14:01:56;3.30;;;1.88;;
54919;SDS011;63804;53.120;8.764;2023-11-21T14:04:39;3.95;;;1.95;;
54919;SDS011;63804;53.120;8.764;2023-11-21T14:07:23;3.30;;;1.70;;
54919;SDS011;63804;53.120;8.764;2023-11-21T14:10:13;2.88;;;1.63;;
54919;SDS011;63804;53.120;8.764;2023-11-21T14:12:43;3.78;;;1.80;;
54919;SDS011;63804;53.120;8.764;2023-11-21T14:15:11;4.05;;;1.73;;
54919;SDS011;63804;53.120;8.764;2023-11-21T14:17:44;3.88;;;1.90;;
54919;SDS011;63804;53.120;8.764;2023-11-21T14:20:12;2.45;;;1.48;;
54919;SDS011;63804;53.120;8.764;2023-11-21T14:22:44;3.03;;;1.70;;
54919;SDS011;63804;53.120;8.764;2023-11-21T14:25:13;5.60;;;2.42;;
54919;SDS011;63804;53.120;8.764;2023-11-21T14:27:41;7.65;;;3.92;;
54919;SDS011;63804;53.120;8.764;2023-11-21T14:30:09;8.80;;;4.50;;
54919;SDS011;63804;53.120;8.764;2023-11-21T14:32:41;5.25;;;2.80;;
54919;SDS011;63804;53.120;8.764;2023-11-21T14:35:09;3.42;;;2.17;;
54919;SDS011;63804;53.120;8.764;2023-11-21T14:37:37;12.05;;;7.38;;
54919;SDS011;63804;53.120;8.764;2023-11-21T14:40:05;8.18;;;4.78;;
54919;SDS011;63804;53.120;8.764;2023-11-21T14:42:35;6.60;;;3.20;;
54919;SDS011;63804;53.120;8.764;2023-11-21T14:45:06;6.80;;;3.75;;
54919;SDS011;63804;53.120;8.764;2023-11-21T14:47:35;3.65;;;2.10;;
54919;SDS011;63804;53.120;8.764;2023-11-21T14:50:09;9.57;;;2.15;;
54919;SDS011;63804;53.120;8.764;2023-11-21T14:52:56;3.35;;;1.90;;
54919;SDS011;63804;53.120;8.764;2023-11-21T14:55:27;4.15;;;1.80;;
54919;SDS011;63804;53.120;8.764;2023-11-21T14:58:10;3.60;;;2.00;;
54919;SDS011;63804;53.120;8.764;2023-11-21T15:00:43;3.30;;;2.10;;
54919;SDS011;63804;53.120;8.764;2023-11-21T15:03:15;3.20;;;1.70;;
54919;SDS011;63804;53.120;8.764;2023-11-21T15:06:08;2.33;;;1.80;;
54919;SDS011;63804;53.120;8.764;2023-11-21T15:08:57;2.50;;;1.60;;